sensor_id;sensor_type;location;lat;lon;timestamp;temperature;humidity
7920;DHT22;18778;47.610;9.776;2023-02-03T00:00:45;5.20;99.90
7920;DHT22;18778;47.610;9.776;2023-02-03T00:03:11;4.10;99.90
7920;DHT22;18778;47.610;9.776;2023-02-03T00:05:37;4.00;99.90
7920;DHT22;18778;47.610;9.776;2023-02-03T00:08:04;4.10;99.90
7920;DHT22;18778;47.610;9.776;2023-02-03T00:10:33;4.10;99.90
7920;DHT22;18778;47.610;9.776;2023-02-03T00:12:59;3.80;99.90
7920;DHT22;18778;47.610;9.776;2023-02-03T00:15:24;3.90;99.90
7920;DHT22;18778;47.610;9.776;2023-02-03T00:17:51;3.90;99.90
7920;DHT22;18778;47.610;9.776;2023-02-03T00:20:17;3.90;99.90
7920;DHT22;18778;47.610;9.776;2023-02-03T00:22:43;3.50;99.90
7920;DHT22;18778;47.610;9.776;2023-02-03T00:25:09;3.70;99.90
7920;DHT22;18778;47.610;9.776;2023-02-03T00:27:35;3.80;99.90
7920;DHT22;18778;47.610;9.776;2023-02-03T00:30:00;3.80;99.90
7920;DHT22;18778;47.610;9.776;2023-02-03T00:32:26;3.70;99.90
7920;DHT22;18778;47.610;9.776;2023-02-03T00:34:52;3.70;99.90
7920;DHT22;18778;47.610;9.776;2023-02-03T00:37:17;3.80;99.90
7920;DHT22;18778;47.610;9.776;2023-02-03T00:39:43;3.90;99.90
7920;DHT22;18778;47.610;9.776;2023-02-03T00:42:08;3.90;99.90
7920;DHT22;18778;47.610;9.776;2023-02-03T00:44:34;3.90;99.90
7920;DHT22;18778;47.610;9.776;2023-02-03T00:46:59;3.90;99.90
7920;DHT22;18778;47.610;9.776;2023-02-03T00:49:25;3.90;99.90
7920;DHT22;18778;47.610;9.776;2023-02-03T00:51:51;3.80;99.90
7920;DHT22;18778;47.610;9.776;2023-02-03T00:54:16;3.80;99.90
7920;DHT22;18778;47.610;9.776;2023-02-03T00:56:42;4.00;99.90
7920;DHT22;18778;47.610;9.776;2023-02-03T00:59:08;3.90;99.90
7920;DHT22;18778;47.610;9.776;2023-02-03T01:01:35;3.90;99.90
7920;DHT22;18778;47.610;9.776;2023-02-03T01:04:01;3.90;99.90
7920;DHT22;18778;47.610;9.776;2023-02-03T01:06:27;3.90;99.90
7920;DHT22;18778;47.610;9.776;2023-02-03T01:08:53;3.90;99.90
7920;DHT22;18778;47.610;9.776;2023-02-03T01:11:24;7.30;99.90
7920;DHT22;18778;47.610;9.776;2023-02-03T01:13:50;3.90;99.90
7920;DHT22;18778;47.610;9.776;2023-02-03T01:16:18;3.90;99.90
7920;DHT22;18778;47.610;9.776;2023-02-03T01:18:44;3.90;99.90
7920;DHT22;18778;47.610;9.776;2023-02-03T01:21:13;3.60;99.90
7920;DHT22;18778;47.610;9.776;2023-02-03T01:23:39;3.90;99.90
7920;DHT22;18778;47.610;9.776;2023-02-03T01:26:07;3.80;99.90
7920;DHT22;18778;47.610;9.776;2023-02-03T01:28:33;4.00;99.90
7920;DHT22;18778;47.610;9.776;2023-02-03T01:31:12;3.90;99.90
7920;DHT22;18778;47.610;9.776;2023-02-03T01:33:39;4.10;99.90
7920;DHT22;18778;47.610;9.776;2023-02-03T01:36:08;4.10;99.90
7920;DHT22;18778;47.610;9.776;2023-02-03T01:38:35;4.20;99.90
7920;DHT22;18778;47.610;9.776;2023-02-03T01:41:01;4.10;99.90
7920;DHT22;18778;47.610;9.776;2023-02-03T01:43:39;4.10;99.90
7920;DHT22;18778;47.610;9.776;2023-02-03T01:46:36;4.10;99.90
7920;DHT22;18778;47.610;9.776;2023-02-03T01:49:18;4.20;99.90
7920;DHT22;18778;47.610;9.776;2023-02-03T01:51:48;4.20;99.90
7920;DHT22;18778;47.610;9.776;2023-02-03T01:54:17;4.20;99.90
7920;DHT22;18778;47.610;9.776;2023-02-03T01:56:53;4.20;99.90
7920;DHT22;18778;47.610;9.776;2023-02-03T01:59:21;4.10;99.90
7920;DHT22;18778;47.610;9.776;2023-02-03T02:01:49;4.20;99.90
7920;DHT22;18778;47.610;9.776;2023-02-03T02:04:15;4.20;99.90
7920;DHT22;18778;47.610;9.776;2023-02-03T02:06:40;4.30;99.90
7920;DHT22;18778;47.610;9.776;2023-02-03T02:09:06;4.30;99.90
7920;DHT22;18778;47.610;9.776;2023-02-03T02:11:32;4.40;99.90
7920;DHT22;18778;47.610;9.776;2023-02-03T02:14:00;4.40;99.90
7920;DHT22;18778;47.610;9.776;2023-02-03T02:16:51;4.40;99.90
7920;DHT22;18778;47.610;9.776;2023-02-03T02:19:25;4.50;99.90
7920;DHT22;18778;47.610;9.776;2023-02-03T02:25:10;4.50;99.90
7920;DHT22;18778;47.610;9.776;2023-02-03T02:28:06;4.50;99.90
7920;DHT22;18778;47.610;9.776;2023-02-03T02:36:39;4.40;99.90
7920;DHT22;18778;47.610;9.776;2023-02-03T02:41:43;4.30;99.90
7920;DHT22;18778;47.610;9.776;2023-02-03T02:44:22;4.30;99.90
7920;DHT22;18778;47.610;9.776;2023-02-03T02:46:52;4.30;99.90
7920;DHT22;18778;47.610;9.776;2023-02-03T02:49:24;4.20;99.90
7920;DHT22;18778;47.610;9.776;2023-02-03T02:51:52;3.80;99.90
7920;DHT22;18778;47.610;9.776;2023-02-03T02:54:21;4.10;99.90
7920;DHT22;18778;47.610;9.776;2023-02-03T02:56:52;4.30;99.90
7920;DHT22;18778;47.610;9.776;2023-02-03T02:59:19;4.30;99.90
7920;DHT22;18778;47.610;9.776;2023-02-03T03:01:45;4.20;99.90
7920;DHT22;18778;47.610;9.776;2023-02-03T03:04:12;4.20;99.90
7920;DHT22;18778;47.610;9.776;2023-02-03T03:07:00;4.20;99.90
7920;DHT22;18778;47.610;9.776;2023-02-03T03:09:40;4.40;99.90
7920;DHT22;18778;47.610;9.776;2023-02-03T03:12:18;4.40;99.90
7920;DHT22;18778;47.610;9.776;2023-02-03T03:14:49;4.40;99.90
7920;DHT22;18778;47.610;9.776;2023-02-03T03:17:24;4.30;99.90
7920;DHT22;18778;47.610;9.776;2023-02-03T03:19:54;4.40;99.90
7920;DHT22;18778;47.610;9.776;2023-02-03T03:22:24;4.50;99.90
7920;DHT22;18778;47.610;9.776;2023-02-03T03:24:55;4.30;99.90
7920;DHT22;18778;47.610;9.776;2023-02-03T03:27:25;4.40;99.90
7920;DHT22;18778;47.610;9.776;2023-02-03T03:29:57;4.50;99.90
7920;DHT22;18778;47.610;9.776;2023-02-03T03:32:24;4.40;99.90
7920;DHT22;18778;47.610;9.776;2023-02-03T03:34:53;4.40;99.90
7920;DHT22;18778;47.610;9.776;2023-02-03T03:37:35;4.40;99.90
7920;DHT22;18778;47.610;9.776;2023-02-03T03:40:11;4.40;99.90
7920;DHT22;18778;47.610;9.776;2023-02-03T03:45:48;4.30;99.90
7920;DHT22;18778;47.610;9.776;2023-02-03T03:48:35;4.30;99.90
7920;DHT22;18778;47.610;9.776;2023-02-03T03:51:09;4.20;99.90
7920;DHT22;18778;47.610;9.776;2023-02-03T03:53:38;4.20;99.90
7920;DHT22;18778;47.610;9.776;2023-02-03T03:56:08;4.10;99.90
7920;DHT22;18778;47.610;9.776;2023-02-03T03:58:37;4.10;99.90
7920;DHT22;18778;47.610;9.776;2023-02-03T04:01:05;4.10;99.90
7920;DHT22;18778;47.610;9.776;2023-02-03T04:03:37;4.00;99.90
7920;DHT22;18778;47.610;9.776;2023-02-03T04:06:04;4.10;99.90
7920;DHT22;18778;47.610;9.776;2023-02-03T04:08:30;4.10;99.90
7920;DHT22;18778;47.610;9.776;2023-02-03T04:10:55;4.10;99.90
7920;DHT22;18778;47.610;9.776;2023-02-03T04:13:21;4.00;99.90
7920;DHT22;18778;47.610;9.776;2023-02-03T04:15:46;4.00;99.90
7920;DHT22;18778;47.610;9.776;2023-02-03T04:18:13;3.90;99.90
7920;DHT22;18778;47.610;9.776;2023-02-03T04:20:39;3.90;99.90
7920;DHT22;18778;47.610;9.776;2023-02-03T04:23:05;3.90;99.90
7920;DHT22;18778;47.610;9.776;2023-02-03T04:25:30;3.90;99.90
7920;DHT22;18778;47.610;9.776;2023-02-03T04:27:56;3.90;99.90
7920;DHT22;18778;47.610;9.776;2023-02-03T04:30:22;3.90;99.90
7920;DHT22;18778;47.610;9.776;2023-02-03T04:32:47;3.90;99.90
7920;DHT22;18778;47.610;9.776;2023-02-03T04:35:13;3.90;99.90
7920;DHT22;18778;47.610;9.776;2023-02-03T04:37:39;3.80;99.90
7920;DHT22;18778;47.610;9.776;2023-02-03T04:40:06;3.90;99.90
7920;DHT22;18778;47.610;9.776;2023-02-03T04:42:31;3.90;99.90
7920;DHT22;18778;47.610;9.776;2023-02-03T04:44:57;3.90;99.90
7920;DHT22;18778;47.610;9.776;2023-02-03T04:47:22;3.90;99.90
7920;DHT22;18778;47.610;9.776;2023-02-03T04:49:48;3.80;99.90
7920;DHT22;18778;47.610;9.776;2023-02-03T04:52:14;3.90;99.90
7920;DHT22;18778;47.610;9.776;2023-02-03T04:54:39;3.80;99.90
7920;DHT22;18778;47.610;9.776;2023-02-03T04:57:05;3.90;99.90
7920;DHT22;18778;47.610;9.776;2023-02-03T04:59:31;3.80;99.90
7920;DHT22;18778;47.610;9.776;2023-02-03T05:01:57;3.80;99.90
7920;DHT22;18778;47.610;9.776;2023-02-03T05:04:23;3.80;99.90
7920;DHT22;18778;47.610;9.776;2023-02-03T05:06:48;3.90;99.90
7920;DHT22;18778;47.610;9.776;2023-02-03T05:09:14;3.80;99.90
7920;DHT22;18778;47.610;9.776;2023-02-03T05:11:39;3.90;99.90
7920;DHT22;18778;47.610;9.776;2023-02-03T05:14:05;3.90;99.90
7920;DHT22;18778;47.610;9.776;2023-02-03T05:16:31;3.80;99.90
7920;DHT22;18778;47.610;9.776;2023-02-03T05:18:57;3.90;99.90
7920;DHT22;18778;47.610;9.776;2023-02-03T05:21:23;3.80;99.90
7920;DHT22;18778;47.610;9.776;2023-02-03T05:23:48;3.80;99.90
7920;DHT22;18778;47.610;9.776;2023-02-03T05:26:14;3.80;99.90
7920;DHT22;18778;47.610;9.776;2023-02-03T05:28:39;3.80;99.90
7920;DHT22;18778;47.610;9.776;2023-02-03T05:31:05;3.80;99.90
7920;DHT22;18778;47.610;9.776;2023-02-03T05:33:30;3.80;99.90
7920;DHT22;18778;47.610;9.776;2023-02-03T05:35:56;3.80;99.90
7920;DHT22;18778;47.610;9.776;2023-02-03T05:38:22;3.70;99.90
7920;DHT22;18778;47.610;9.776;2023-02-03T05:40:50;3.80;99.90
7920;DHT22;18778;47.610;9.776;2023-02-03T05:43:34;3.70;99.90
7920;DHT22;18778;47.610;9.776;2023-02-03T05:46:01;3.90;99.90
7920;DHT22;18778;47.610;9.776;2023-02-03T05:48:27;4.10;99.90
7920;DHT22;18778;47.610;9.776;2023-02-03T05:50:53;4.20;99.90
7920;DHT22;18778;47.610;9.776;2023-02-03T05:53:18;4.30;99.90
7920;DHT22;18778;47.610;9.776;2023-02-03T05:55:44;4.30;99.90
7920;DHT22;18778;47.610;9.776;2023-02-03T05:58:09;4.40;99.90
7920;DHT22;18778;47.610;9.776;2023-02-03T06:00:35;4.50;99.90
7920;DHT22;18778;47.610;9.776;2023-02-03T06:03:01;4.40;99.90
7920;DHT22;18778;47.610;9.776;2023-02-03T06:05:28;5.70;99.90
7920;DHT22;18778;47.610;9.776;2023-02-03T06:07:54;4.40;99.90
7920;DHT22;18778;47.610;9.776;2023-02-03T06:10:20;4.30;99.90
7920;DHT22;18778;47.610;9.776;2023-02-03T06:12:46;4.40;99.90
7920;DHT22;18778;47.610;9.776;2023-02-03T06:15:12;4.40;99.90
7920;DHT22;18778;47.610;9.776;2023-02-03T06:17:37;4.40;99.90
7920;DHT22;18778;47.610;9.776;2023-02-03T06:20:05;4.40;99.90
7920;DHT22;18778;47.610;9.776;2023-02-03T06:22:31;4.50;99.90
7920;DHT22;18778;47.610;9.776;2023-02-03T06:24:56;4.40;99.90
7920;DHT22;18778;47.610;9.776;2023-02-03T06:27:22;4.40;99.90
7920;DHT22;18778;47.610;9.776;2023-02-03T06:29:48;4.40;99.90
7920;DHT22;18778;47.610;9.776;2023-02-03T06:32:14;4.50;99.90
7920;DHT22;18778;47.610;9.776;2023-02-03T06:34:39;4.50;99.90
7920;DHT22;18778;47.610;9.776;2023-02-03T06:37:05;4.50;99.90
7920;DHT22;18778;47.610;9.776;2023-02-03T06:39:30;4.50;99.90
7920;DHT22;18778;47.610;9.776;2023-02-03T06:41:56;4.50;99.90
7920;DHT22;18778;47.610;9.776;2023-02-03T06:44:22;4.60;99.90
7920;DHT22;18778;47.610;9.776;2023-02-03T06:46:47;4.70;99.90
7920;DHT22;18778;47.610;9.776;2023-02-03T06:52:02;4.70;99.90
7920;DHT22;18778;47.610;9.776;2023-02-03T06:56:54;4.70;99.90
7920;DHT22;18778;47.610;9.776;2023-02-03T06:59:19;4.60;99.90
7920;DHT22;18778;47.610;9.776;2023-02-03T07:01:45;4.60;99.90
7920;DHT22;18778;47.610;9.776;2023-02-03T07:04:10;4.70;99.90
7920;DHT22;18778;47.610;9.776;2023-02-03T07:06:36;4.70;99.90
7920;DHT22;18778;47.610;9.776;2023-02-03T07:09:04;4.70;99.90
7920;DHT22;18778;47.610;9.776;2023-02-03T07:11:33;4.60;99.90
7920;DHT22;18778;47.610;9.776;2023-02-03T07:29:58;4.90;99.90
7920;DHT22;18778;47.610;9.776;2023-02-03T07:32:27;4.80;99.90
7920;DHT22;18778;47.610;9.776;2023-02-03T07:44:45;4.90;99.90
7920;DHT22;18778;47.610;9.776;2023-02-03T07:52:27;4.90;99.90
7920;DHT22;18778;47.610;9.776;2023-02-03T08:02:21;4.80;99.90
7920;DHT22;18778;47.610;9.776;2023-02-03T08:04:50;4.80;99.90
7920;DHT22;18778;47.610;9.776;2023-02-03T08:35:11;4.50;99.90
7920;DHT22;18778;47.610;9.776;2023-02-03T08:40:06;4.40;99.90
7920;DHT22;18778;47.610;9.776;2023-02-03T08:42:33;4.50;99.90
7920;DHT22;18778;47.610;9.776;2023-02-03T08:44:58;4.40;99.90
7920;DHT22;18778;47.610;9.776;2023-02-03T08:47:25;4.50;99.90
7920;DHT22;18778;47.610;9.776;2023-02-03T08:49:50;4.30;99.90
7920;DHT22;18778;47.610;9.776;2023-02-03T08:52:16;4.50;99.90
7920;DHT22;18778;47.610;9.776;2023-02-03T08:54:42;4.30;99.90
7920;DHT22;18778;47.610;9.776;2023-02-03T08:57:10;4.30;99.90
7920;DHT22;18778;47.610;9.776;2023-02-03T08:59:41;4.20;99.90
7920;DHT22;18778;47.610;9.776;2023-02-03T09:02:10;4.20;99.90
7920;DHT22;18778;47.610;9.776;2023-02-03T09:04:36;4.20;99.90
7920;DHT22;18778;47.610;9.776;2023-02-03T09:07:02;4.20;99.90
7920;DHT22;18778;47.610;9.776;2023-02-03T09:09:29;4.70;99.90
7920;DHT22;18778;47.610;9.776;2023-02-03T09:11:54;4.10;99.90
7920;DHT22;18778;47.610;9.776;2023-02-03T09:14:29;4.20;99.90
7920;DHT22;18778;47.610;9.776;2023-02-03T09:16:55;4.40;99.90
7920;DHT22;18778;47.610;9.776;2023-02-03T09:19:20;4.60;99.90
7920;DHT22;18778;47.610;9.776;2023-02-03T09:21:46;4.50;99.90
7920;DHT22;18778;47.610;9.776;2023-02-03T09:24:14;4.60;99.90
7920;DHT22;18778;47.610;9.776;2023-02-03T09:26:39;5.30;99.90
7920;DHT22;18778;47.610;9.776;2023-02-03T09:29:05;4.80;99.90
7920;DHT22;18778;47.610;9.776;2023-02-03T09:31:32;4.80;99.90
7920;DHT22;18778;47.610;9.776;2023-02-03T09:33:58;4.80;99.90
7920;DHT22;18778;47.610;9.776;2023-02-03T09:36:24;4.60;99.90
7920;DHT22;18778;47.610;9.776;2023-02-03T09:38:50;4.70;99.90
7920;DHT22;18778;47.610;9.776;2023-02-03T09:44:37;5.50;99.90
7920;DHT22;18778;47.610;9.776;2023-02-03T09:47:16;5.90;99.90
7920;DHT22;18778;47.610;9.776;2023-02-03T09:49:47;5.90;99.90
7920;DHT22;18778;47.610;9.776;2023-02-03T09:52:24;5.90;99.90
7920;DHT22;18778;47.610;9.776;2023-02-03T09:58:01;5.70;99.90
7920;DHT22;18778;47.610;9.776;2023-02-03T10:00:35;5.90;99.90
7920;DHT22;18778;47.610;9.776;2023-02-03T10:17:47;7.90;97.70
7920;DHT22;18778;47.610;9.776;2023-02-03T10:20:22;8.30;97.40
7920;DHT22;18778;47.610;9.776;2023-02-03T10:22:57;9.50;93.70
7920;DHT22;18778;47.610;9.776;2023-02-03T10:25:50;9.60;94.00
7920;DHT22;18778;47.610;9.776;2023-02-03T10:28:21;9.60;92.90
7920;DHT22;18778;47.610;9.776;2023-02-03T10:30:56;11.80;93.30
7920;DHT22;18778;47.610;9.776;2023-02-03T10:33:28;8.80;92.30
7920;DHT22;18778;47.610;9.776;2023-02-03T10:41:11;9.30;93.00
7920;DHT22;18778;47.610;9.776;2023-02-03T10:43:37;9.40;92.20
7920;DHT22;18778;47.610;9.776;2023-02-03T10:46:17;9.50;92.90
7920;DHT22;18778;47.610;9.776;2023-02-03T10:51:24;9.70;92.30
7920;DHT22;18778;47.610;9.776;2023-02-03T10:53:51;9.90;92.20
7920;DHT22;18778;47.610;9.776;2023-02-03T10:56:21;10.00;90.60
7920;DHT22;18778;47.610;9.776;2023-02-03T10:58:53;9.90;90.70
7920;DHT22;18778;47.610;9.776;2023-02-03T11:01:22;9.70;90.30
7920;DHT22;18778;47.610;9.776;2023-02-03T11:04:03;9.50;92.00
7920;DHT22;18778;47.610;9.776;2023-02-03T11:06:30;9.50;91.80
7920;DHT22;18778;47.610;9.776;2023-02-03T11:08:56;9.40;92.60
7920;DHT22;18778;47.610;9.776;2023-02-03T11:11:27;8.60;92.70
7920;DHT22;18778;47.610;9.776;2023-02-03T11:16:28;7.70;93.40
7920;DHT22;18778;47.610;9.776;2023-02-03T11:19:01;7.60;93.60
7920;DHT22;18778;47.610;9.776;2023-02-03T11:21:31;7.40;93.40
7920;DHT22;18778;47.610;9.776;2023-02-03T11:24:12;7.30;94.00
7920;DHT22;18778;47.610;9.776;2023-02-03T11:29:32;7.40;94.30
7920;DHT22;18778;47.610;9.776;2023-02-03T11:32:05;7.40;93.60
7920;DHT22;18778;47.610;9.776;2023-02-03T11:34:36;7.30;93.70
7920;DHT22;18778;47.610;9.776;2023-02-03T11:37:28;7.20;94.60
7920;DHT22;18778;47.610;9.776;2023-02-03T11:42:45;7.20;94.60
7920;DHT22;18778;47.610;9.776;2023-02-03T11:47:56;7.20;94.30
7920;DHT22;18778;47.610;9.776;2023-02-03T11:53:35;7.10;93.90
7920;DHT22;18778;47.610;9.776;2023-02-03T12:02:13;7.20;94.60
7920;DHT22;18778;47.610;9.776;2023-02-03T12:13:23;7.00;94.90
7920;DHT22;18778;47.610;9.776;2023-02-03T12:18:57;6.90;95.40
7920;DHT22;18778;47.610;9.776;2023-02-03T12:26:54;7.00;94.90
7920;DHT22;18778;47.610;9.776;2023-02-03T12:29:26;7.00;94.70
7920;DHT22;18778;47.610;9.776;2023-02-03T12:32:04;6.90;94.50
7920;DHT22;18778;47.610;9.776;2023-02-03T12:34:40;6.90;94.40
7920;DHT22;18778;47.610;9.776;2023-02-03T12:37:29;6.80;94.80
7920;DHT22;18778;47.610;9.776;2023-02-03T12:40:01;6.70;95.20
7920;DHT22;18778;47.610;9.776;2023-02-03T12:42:56;6.70;94.60
7920;DHT22;18778;47.610;9.776;2023-02-03T12:45:29;6.80;95.30
7920;DHT22;18778;47.610;9.776;2023-02-03T12:50:43;6.80;94.80
7920;DHT22;18778;47.610;9.776;2023-02-03T12:53:20;6.70;94.80
7920;DHT22;18778;47.610;9.776;2023-02-03T12:55:51;6.80;95.10
7920;DHT22;18778;47.610;9.776;2023-02-03T12:58:39;6.90;95.00
7920;DHT22;18778;47.610;9.776;2023-02-03T13:01:23;6.80;94.90
7920;DHT22;18778;47.610;9.776;2023-02-03T13:04:05;6.80;95.20
7920;DHT22;18778;47.610;9.776;2023-02-03T13:06:53;6.80;95.40
7920;DHT22;18778;47.610;9.776;2023-02-03T13:09:43;8.10;95.80
7920;DHT22;18778;47.610;9.776;2023-02-03T13:12:31;6.80;95.70
7920;DHT22;18778;47.610;9.776;2023-02-03T13:18:02;6.80;94.40
7920;DHT22;18778;47.610;9.776;2023-02-03T13:20:31;6.70;94.60
7920;DHT22;18778;47.610;9.776;2023-02-03T13:23:03;6.90;94.30
7920;DHT22;18778;47.610;9.776;2023-02-03T13:28:13;7.00;94.70
7920;DHT22;18778;47.610;9.776;2023-02-03T13:41:50;7.20;94.60
7920;DHT22;18778;47.610;9.776;2023-02-03T13:44:22;7.30;95.20
7920;DHT22;18778;47.610;9.776;2023-02-03T13:46:51;7.30;95.30
7920;DHT22;18778;47.610;9.776;2023-02-03T13:49:29;7.30;94.60
7920;DHT22;18778;47.610;9.776;2023-02-03T13:51:55;7.30;94.20
7920;DHT22;18778;47.610;9.776;2023-02-03T13:54:27;6.90;94.30
7920;DHT22;18778;47.610;9.776;2023-02-03T13:56:58;7.10;94.50
7920;DHT22;18778;47.610;9.776;2023-02-03T13:59:29;7.00;94.40
7920;DHT22;18778;47.610;9.776;2023-02-03T14:07:33;7.30;95.20
7920;DHT22;18778;47.610;9.776;2023-02-03T14:10:21;7.40;95.60
7920;DHT22;18778;47.610;9.776;2023-02-03T14:22:52;7.30;96.20
7920;DHT22;18778;47.610;9.776;2023-02-03T14:25:19;6.90;96.50
7920;DHT22;18778;47.610;9.776;2023-02-03T14:27:46;6.80;96.30
7920;DHT22;18778;47.610;9.776;2023-02-03T14:30:15;6.70;96.40
7920;DHT22;18778;47.610;9.776;2023-02-03T14:32:53;6.80;96.30
7920;DHT22;18778;47.610;9.776;2023-02-03T14:35:23;6.80;96.70
7920;DHT22;18778;47.610;9.776;2023-02-03T14:37:55;6.70;96.80
7920;DHT22;18778;47.610;9.776;2023-02-03T14:43:34;6.60;97.20
7920;DHT22;18778;47.610;9.776;2023-02-03T14:48:50;6.40;97.20
7920;DHT22;18778;47.610;9.776;2023-02-03T14:51:40;6.50;97.30
7920;DHT22;18778;47.610;9.776;2023-02-03T15:02:18;6.50;97.90
7920;DHT22;18778;47.610;9.776;2023-02-03T15:04:45;6.30;97.70
7920;DHT22;18778;47.610;9.776;2023-02-03T15:07:47;6.40;97.30
7920;DHT22;18778;47.610;9.776;2023-02-03T15:10:18;6.50;97.50
7920;DHT22;18778;47.610;9.776;2023-02-03T15:12:56;6.50;97.00
7920;DHT22;18778;47.610;9.776;2023-02-03T15:15:25;6.40;97.20
7920;DHT22;18778;47.610;9.776;2023-02-03T15:17:59;6.40;97.20
7920;DHT22;18778;47.610;9.776;2023-02-03T15:22:56;6.40;97.50
7920;DHT22;18778;47.610;9.776;2023-02-03T15:25:28;6.20;97.70
7920;DHT22;18778;47.610;9.776;2023-02-03T15:27:53;6.40;97.20
7920;DHT22;18778;47.610;9.776;2023-02-03T15:30:27;6.00;97.40
7920;DHT22;18778;47.610;9.776;2023-02-03T15:35:30;6.30;97.30
7920;DHT22;18778;47.610;9.776;2023-02-03T15:38:00;6.30;97.60
7920;DHT22;18778;47.610;9.776;2023-02-03T15:40:35;6.30;97.10
7920;DHT22;18778;47.610;9.776;2023-02-03T15:43:34;6.30;97.30
7920;DHT22;18778;47.610;9.776;2023-02-03T15:46:19;6.40;97.10
7920;DHT22;18778;47.610;9.776;2023-02-03T15:48:56;6.40;97.30
7920;DHT22;18778;47.610;9.776;2023-02-03T15:51:36;8.70;98.90
7920;DHT22;18778;47.610;9.776;2023-02-03T15:54:14;6.40;97.90
7920;DHT22;18778;47.610;9.776;2023-02-03T15:57:03;6.30;97.70
7920;DHT22;18778;47.610;9.776;2023-02-03T15:59:38;6.30;97.90
7920;DHT22;18778;47.610;9.776;2023-02-03T16:02:21;7.00;98.40
7920;DHT22;18778;47.610;9.776;2023-02-03T16:04:50;6.20;98.40
7920;DHT22;18778;47.610;9.776;2023-02-03T16:07:24;6.30;98.40
7920;DHT22;18778;47.610;9.776;2023-02-03T16:09:57;6.30;98.40
7920;DHT22;18778;47.610;9.776;2023-02-03T16:12:31;7.00;99.00
7920;DHT22;18778;47.610;9.776;2023-02-03T16:14:58;6.20;98.60
7920;DHT22;18778;47.610;9.776;2023-02-03T16:22:43;6.10;98.90
7920;DHT22;18778;47.610;9.776;2023-02-03T16:25:24;5.60;98.70
7920;DHT22;18778;47.610;9.776;2023-02-03T16:28:00;6.10;99.00
7920;DHT22;18778;47.610;9.776;2023-02-03T16:30:54;6.10;99.00
7920;DHT22;18778;47.610;9.776;2023-02-03T16:33:38;5.70;99.10
7920;DHT22;18778;47.610;9.776;2023-02-03T16:36:22;6.10;99.20
7920;DHT22;18778;47.610;9.776;2023-02-03T16:39:10;9.30;99.90
7920;DHT22;18778;47.610;9.776;2023-02-03T16:41:57;6.30;99.40
7920;DHT22;18778;47.610;9.776;2023-02-03T16:44:45;6.00;99.40
7920;DHT22;18778;47.610;9.776;2023-02-03T16:47:31;6.00;99.20
7920;DHT22;18778;47.610;9.776;2023-02-03T16:50:24;6.00;99.30
7920;DHT22;18778;47.610;9.776;2023-02-03T16:53:17;6.00;99.30
7920;DHT22;18778;47.610;9.776;2023-02-03T16:55:44;6.50;99.70
7920;DHT22;18778;47.610;9.776;2023-02-03T16:58:10;6.00;99.70
7920;DHT22;18778;47.610;9.776;2023-02-03T17:00:40;7.00;99.90
7920;DHT22;18778;47.610;9.776;2023-02-03T17:03:15;6.00;99.80
7920;DHT22;18778;47.610;9.776;2023-02-03T17:05:43;6.00;99.50
7920;DHT22;18778;47.610;9.776;2023-02-03T17:08:08;6.00;99.60
7920;DHT22;18778;47.610;9.776;2023-02-03T17:10:36;6.00;99.60
7920;DHT22;18778;47.610;9.776;2023-02-03T17:13:02;6.00;99.50
7920;DHT22;18778;47.610;9.776;2023-02-03T17:15:27;6.00;99.30
7920;DHT22;18778;47.610;9.776;2023-02-03T17:17:53;7.50;99.90
7920;DHT22;18778;47.610;9.776;2023-02-03T17:22:45;6.00;99.00
7920;DHT22;18778;47.610;9.776;2023-02-03T17:25:11;6.00;99.30
7920;DHT22;18778;47.610;9.776;2023-02-03T17:27:37;6.60;99.70
7920;DHT22;18778;47.610;9.776;2023-02-03T17:30:03;6.00;99.30
7920;DHT22;18778;47.610;9.776;2023-02-03T17:32:29;6.00;99.10
7920;DHT22;18778;47.610;9.776;2023-02-03T17:34:55;5.90;99.30
7920;DHT22;18778;47.610;9.776;2023-02-03T17:37:20;7.30;99.90
7920;DHT22;18778;47.610;9.776;2023-02-03T17:39:46;6.00;99.40
7920;DHT22;18778;47.610;9.776;2023-02-03T17:42:12;6.00;99.10
7920;DHT22;18778;47.610;9.776;2023-02-03T17:44:37;6.00;99.00
7920;DHT22;18778;47.610;9.776;2023-02-03T17:47:03;6.00;98.60
7920;DHT22;18778;47.610;9.776;2023-02-03T17:49:29;6.00;98.90
7920;DHT22;18778;47.610;9.776;2023-02-03T17:51:55;5.70;98.70
7920;DHT22;18778;47.610;9.776;2023-02-03T17:54:21;6.00;98.60
7920;DHT22;18778;47.610;9.776;2023-02-03T17:56:46;8.30;99.80
7920;DHT22;18778;47.610;9.776;2023-02-03T17:59:14;6.90;99.30
7920;DHT22;18778;47.610;9.776;2023-02-03T18:01:41;7.90;99.80
7920;DHT22;18778;47.610;9.776;2023-02-03T18:04:07;6.00;98.50
7920;DHT22;18778;47.610;9.776;2023-02-03T18:06:34;7.10;99.40
7920;DHT22;18778;47.610;9.776;2023-02-03T18:09:04;6.00;98.80
7920;DHT22;18778;47.610;9.776;2023-02-03T18:11:32;6.10;98.60
7920;DHT22;18778;47.610;9.776;2023-02-03T18:13:59;6.40;98.80
7920;DHT22;18778;47.610;9.776;2023-02-03T18:16:27;5.80;98.60
7920;DHT22;18778;47.610;9.776;2023-02-03T18:18:54;6.00;98.90
7920;DHT22;18778;47.610;9.776;2023-02-03T18:21:22;6.00;98.40
7920;DHT22;18778;47.610;9.776;2023-02-03T18:23:49;7.00;99.10
7920;DHT22;18778;47.610;9.776;2023-02-03T18:26:17;6.00;98.30
7920;DHT22;18778;47.610;9.776;2023-02-03T18:28:43;6.00;98.60
7920;DHT22;18778;47.610;9.776;2023-02-03T18:31:12;6.00;98.40
7920;DHT22;18778;47.610;9.776;2023-02-03T18:33:40;6.40;98.60
7920;DHT22;18778;47.610;9.776;2023-02-03T18:36:06;6.80;98.70
7920;DHT22;18778;47.610;9.776;2023-02-03T18:38:34;6.10;98.20
7920;DHT22;18778;47.610;9.776;2023-02-03T18:41:08;7.10;98.80
7920;DHT22;18778;47.610;9.776;2023-02-03T18:43:35;6.00;98.40
7920;DHT22;18778;47.610;9.776;2023-02-03T18:46:12;6.10;98.60
7920;DHT22;18778;47.610;9.776;2023-02-03T18:48:38;6.00;98.00
7920;DHT22;18778;47.610;9.776;2023-02-03T18:51:13;6.00;98.30
7920;DHT22;18778;47.610;9.776;2023-02-03T18:53:40;7.50;98.80
7920;DHT22;18778;47.610;9.776;2023-02-03T18:56:19;5.70;98.40
7920;DHT22;18778;47.610;9.776;2023-02-03T18:58:45;6.00;98.20
7920;DHT22;18778;47.610;9.776;2023-02-03T19:01:40;7.30;98.90
7920;DHT22;18778;47.610;9.776;2023-02-03T19:04:07;6.00;98.40
7920;DHT22;18778;47.610;9.776;2023-02-03T19:06:33;6.40;98.90
7920;DHT22;18778;47.610;9.776;2023-02-03T19:08:59;6.00;98.70
7920;DHT22;18778;47.610;9.776;2023-02-03T19:11:25;5.80;99.00
7920;DHT22;18778;47.610;9.776;2023-02-03T19:13:51;6.20;99.50
7920;DHT22;18778;47.610;9.776;2023-02-03T19:16:17;5.80;99.70
7920;DHT22;18778;47.610;9.776;2023-02-03T19:18:44;6.30;99.90
7920;DHT22;18778;47.610;9.776;2023-02-03T19:21:11;6.30;99.90
7920;DHT22;18778;47.610;9.776;2023-02-03T19:23:38;5.60;99.90
7920;DHT22;18778;47.610;9.776;2023-02-03T19:26:03;5.40;99.90
7920;DHT22;18778;47.610;9.776;2023-02-03T19:28:29;5.30;99.90
7920;DHT22;18778;47.610;9.776;2023-02-03T19:30:58;5.20;99.90
7920;DHT22;18778;47.610;9.776;2023-02-03T19:33:26;5.00;99.90
7920;DHT22;18778;47.610;9.776;2023-02-03T19:35:52;4.90;99.90
7920;DHT22;18778;47.610;9.776;2023-02-03T19:38:17;4.80;99.90
7920;DHT22;18778;47.610;9.776;2023-02-03T19:40:44;4.80;99.90
7920;DHT22;18778;47.610;9.776;2023-02-03T19:43:11;4.70;99.90
7920;DHT22;18778;47.610;9.776;2023-02-03T19:45:37;5.50;99.90
7920;DHT22;18778;47.610;9.776;2023-02-03T19:48:02;4.70;99.90
7920;DHT22;18778;47.610;9.776;2023-02-03T19:50:28;4.60;99.90
7920;DHT22;18778;47.610;9.776;2023-02-03T19:52:53;4.50;99.90
7920;DHT22;18778;47.610;9.776;2023-02-03T19:55:19;4.50;99.90
7920;DHT22;18778;47.610;9.776;2023-02-03T19:57:45;4.50;99.90